• Join FlightAware (Why Join?)
  • Login
  • US Flag 
01:55PM EDT


 

Airport Tracker/Info


-or-


 

Live Flight TrackerFlight Track Log ✈ SWA2236 ✈ 03-Jul-2013 ✈ KOAK - KLAS

Flight Track Log - Related Links

Times and Time Zones

All times are in EDT time to prevent confusion due to time zone crossing. See the SWA2236 flight status page for this flight to view local times or setup timezone preferences in your user account.

Time Position Orientation Groundspeed Altitude Reporting Facility
EDT Latitude Longitude Course Direction KTS MPH feet Rate Location/Type
12:10PM 37.7090 -122.2160 222° Southwest 34 39  Level FlightAware
12:11PM 37.7070 -122.2180 218° Southwest 15 17 60 Level FlightAware
12:11PM 37.7060 -122.2180 180° South 34 39 120 Level FlightAware
12:11PM 37.7060 -122.2170 90° East 15 17 120 Level FlightAware
12:11PM 37.7050 -122.2160 142° Southeast 15 17 120 Level FlightAware
12:12PM 37.7040 -122.2140 122° Southeast 32 37 120 Level FlightAware
12:12PM 37.7030 -122.2140 180° South 16 18 120 Level FlightAware
12:13PM 37.7020 -122.2140 180° South 15 17 120 Level FlightAware
12:16PM 37.5286 -122.4214 218° Southwest  Level FlightAware Approximate
12:16PM 37.7030 -122.2160 218° Southwest 56 64  Level FlightAware
12:16PM 37.7090 -122.2250 310° West 140 161 1,080 Level FlightAware
12:16PM 37.7170 -122.2380 308° West 150 173 700 1,860 Climbing FlightAware
12:17PM 37.7290 -122.2570 309° West 193 222 1,400 1,920 Climbing FlightAware
12:17PM 37.7410 -122.2760 309° West 216 249 2,200 2,280 Climbing FlightAware
12:17PM 37.7460 -122.2970 287° West 231 266 2,800 2,400 Climbing FlightAware
12:18PM 37.7540 -122.3340 285° West 249 287 4,000 2,220 Climbing FlightAware
12:18PM 37.7630 -122.3730 286° West 280 322 4,800 2,040 Climbing FlightAware
12:19PM 37.7670 -122.4070 278° West 287 330 5,600 2,760 Climbing FlightAware
12:19PM 37.7570 -122.4340 245° Southwest 283 326 6,600 3,000 Climbing FlightAware
12:19PM 37.7430 -122.4460 214° Southwest 282 325 7,200 2,880 Climbing FlightAware
12:19PM 37.7220 -122.4490 186° South 282 325 8,000 2,820 Climbing FlightAware
12:20PM 37.6870 -122.4460 176° South 286 329 9,200 2,700 Climbing FlightAware
12:20PM 37.6650 -122.4450 178° South 293 337 9,900 2,580 Climbing FlightAware
12:21PM 37.6080 -122.4420 178° South 304 350 11,700 1,740 Climbing FlightAware
12:21PM 37.5400 -122.4370 177° South 357 411 12,400 1,500 Climbing FlightAware
12:22PM 37.5040 -122.4150 154° Southeast 358 412 13,400 2,460 Climbing FlightAware
12:22PM 37.4930 -122.3950 125° Southeast 360 414 13,900 2,580 Climbing FlightAware
12:22PM 37.4840 -122.3600 108° East 364 419 14,700 2,580 Climbing FlightAware
12:23PM 37.4700 -122.2760 102° East 372 428 16,400 2,520 Climbing FlightAware
12:24PM 37.4490 -122.1810 106° East 379 436 18,300 2,460 Climbing FlightAware
12:24PM 37.4310 -122.1060 107° East 385 443 19,700 2,280 Climbing FlightAware
12:25PM 37.4170 -122.0440 106° East 392 451 20,700 2,100 Climbing FlightAware
12:25PM 37.3970 -121.9550 106° East 403 464 22,100 2,040 Climbing FlightAware
12:26PM 37.3740 -121.8550 106° East 411 473 23,600 1,980 Climbing FlightAware
12:27PM 37.3530 -121.7650 106° East 414 476 24,900 1,920 Climbing FlightAware
12:28PM 37.3290 -121.6620 106° East 421 484 26,300 1,740 Climbing FlightAware
12:28PM 37.3060 -121.5620 106° East 431 496 27,400 1,620 Climbing FlightAware
12:29PM 37.2850 -121.4700 106° East 433 498 28,500 1,920 Climbing FlightAware
12:30PM 37.2630 -121.3770 107° East 429 494 29,900 1,980 Climbing FlightAware
12:30PM 37.2430 -121.2930 107° East 429 494 31,000 780 Climbing FlightAware
12:31PM 37.2170 -121.1830 107° East 433 498 31,000  Level FlightAware
12:32PM 37.1960 -121.0930 106° East 434 499 31,000  Level FlightAware
12:32PM 37.1740 -121.0030 107° East 434 499 31,000  Level FlightAware
12:33PM 37.1500 -120.8990 106° East 434 499 31,000  Level FlightAware
12:34PM 37.1280 -120.8100 107° East 434 499 31,000  Level FlightAware
12:34PM 37.1030 -120.7070 107° East 434 499 31,000  Level FlightAware
12:35PM 37.0890 -120.6460 106° East 434 499 31,000  Level FlightAware
12:35PM 37.0760 -120.5570 100° East 439 505 31,000  Level FlightAware
12:36PM 37.0870 -120.4580 82° East 442 509 31,000  Level FlightAware
12:37PM 37.1000 -120.3650 80° East 443 510 31,000  Level FlightAware
12:37PM 37.1150 -120.2620 80° East 443 510 31,000  Level FlightAware
12:38PM 37.1310 -120.1560 79° East 444 511 31,000  Level FlightAware
12:39PM 37.1450 -120.0590 80° East 445 512 31,000 900 Level FlightAware
12:39PM 37.1590 -119.9600 80° East 434 499 32,200 1,440 Climbing FlightAware
12:40PM 37.1740 -119.8550 80° East 425 489 33,000 600 Climbing FlightAware
12:41PM 37.1860 -119.7690 80° East 425 489 33,000  Level FlightAware
12:41PM 37.2000 -119.6730 80° East 424 488 33,000  Level FlightAware
12:42PM 37.2150 -119.5690 80° East 423 487 33,000  Level FlightAware
12:43PM 37.2300 -119.4600 80° East 422 486 33,000  Level FlightAware
12:43PM 37.2440 -119.3590 80° East 422 486 33,000  Level FlightAware
12:44PM 37.2580 -119.2540 80° East 421 484 33,000  Level FlightAware
12:45PM 37.2770 -119.1150 80° East 421 484 33,000  Level FlightAware
12:46PM 37.2910 -119.0190 80° East 420 483 33,000  Level FlightAware
12:46PM 37.3040 -118.9190 81° East 420 483 33,000  Level FlightAware
12:47PM 37.3170 -118.8210 81° East 420 483 33,000  Level FlightAware
12:48PM 37.3330 -118.7010 80° East 419 482 33,000  Level FlightAware
12:49PM 37.3480 -118.5860 81° East 418 481 33,000  Level FlightAware
12:49PM 37.3590 -118.5070 80° East 418 481 33,000  Level FlightAware
12:50PM 37.3720 -118.4010 81° East 418 481 33,000  Level FlightAware
12:51PM 37.3800 -118.3100 84° East 416 479 33,000  Level FlightAware
12:51PM 37.3860 -118.2010 86° East 417 480 33,000  Level FlightAware
12:52PM 37.3920 -118.0940 86° East 417 480 33,000  Level FlightAware
12:53PM 37.3950 -118.0120 87° East 417 480 33,000  Level FlightAware
12:54PM 37.4010 -117.8970 86° East 417 480 33,000  Level FlightAware
12:54PM 37.4070 -117.7860 86° East 417 480 33,000  Level FlightAware
12:55PM 37.4110 -117.7120 86° East 417 480 33,000  Level FlightAware
12:56PM 37.4170 -117.6130 86° East 417 480 33,000  Level FlightAware
12:56PM 37.4210 -117.5350 86° East 417 480 33,000  Level FlightAware
12:57PM 37.4260 -117.4380 86° East 417 480 33,000  Level FlightAware
12:58PM 37.4140 -117.2810 95° East 413 475 33,000  Level FlightAware
12:59PM 37.3440 -117.2050 139° Southeast 415 478 33,000  Level FlightAware
12:59PM 37.2750 -117.1460 146° Southeast 417 480 33,000  Level FlightAware
01:00PM 37.2330 -117.1110 146° Southeast 419 482 33,000  Level FlightAware
01:00PM 37.1820 -117.0680 146° Southeast 420 483 33,000  Level FlightAware
01:01PM 37.0900 -116.9890 146° Southeast 422 486 33,000  Level FlightAware
01:02PM 37.0400 -116.9450 145° Southeast 422 486 33,000  Level FlightAware
01:03PM 36.9910 -116.9020 145° Southeast 422 486 33,000  Level FlightAware
01:04PM 36.9100 -116.8300 145° Southeast 422 486 33,000  Level FlightAware
01:04PM 36.8610 -116.7870 145° Southeast 422 486 33,000  Level FlightAware
01:05PM 36.7950 -116.7300 145° Southeast 422 486 33,000 -2,580 Level FlightAware
01:05PM 36.7290 -116.6460 134° Southeast 415 478 30,700 -2,340 Descending FlightAware
01:06PM 36.6740 -116.5630 130° Southeast 415 478 30,700  Level FlightAware
01:07PM 36.6220 -116.4870 130° Southeast 415 478 30,700  Level FlightAware
01:08PM 36.5600 -116.3950 130° Southeast 415 478 30,700  Level FlightAware
01:08PM 36.5230 -116.3390 129° Southeast 415 478 30,700 -6,240 Level FlightAware
01:09PM 36.4440 -116.2420 135° Southeast 374 430 22,600 -5,460 Descending FlightAware
01:10PM 36.3800 -116.1500 131° Southeast 369 425 21,500 -1,860 Descending FlightAware
01:10PM 36.3520 -116.1110 132° Southeast 364 419 20,000 -2,520 Descending FlightAware
01:11PM 36.2830 -116.0160 132° Southeast 355 409 18,000 -1,920 Descending FlightAware
01:12PM 36.2240 -115.9320 131° Southeast 345 397 16,400 -1,200 Descending FlightAware
01:13PM 36.1900 -115.8660 123° Southeast 309 356 16,100 -240 Descending FlightAware
01:14PM 36.1690 -115.8010 112° Southeast 296 341 16,100  Level FlightAware
01:14PM 36.1480 -115.7360 112° Southeast 317 365 16,100 -840 Level FlightAware
01:15PM 36.1200 -115.6500 112° Southeast 321 369 14,900 -1,500 Descending FlightAware
01:16PM 36.0970 -115.5780 112° Southeast 319 367 13,800 -1,620 Descending FlightAware
01:17PM 36.0750 -115.5120 112° Southeast 314 361 12,700 -1,620 Descending FlightAware
01:17PM 36.0520 -115.4390 111° Southeast 310 357 11,600 -1,140 Descending FlightAware
01:18PM 36.0320 -115.3720 110° East 282 325 11,100 -780 Descending FlightAware
01:19PM 36.0260 -115.3100 97° East 290 334 10,600 -1,080 Descending FlightAware
01:19PM 36.0230 -115.2620 94° East 297 342 9,900 -1,440 Descending FlightAware
01:19PM 36.0210 -115.2320 95° East 294 338 9,500 -1,380 Descending FlightAware
01:20PM 36.0180 -115.1880 95° East 279 321 8,900 -1,260 Descending FlightAware
01:20PM 36.0170 -115.1690 94° East 272 313 8,700 -780 Descending FlightAware
01:21PM 36.0130 -115.1260 97° East 259 298 8,400 -840 Descending FlightAware
01:21PM 36.0120 -115.1040 93° East 255 293 8,100 -420 Descending FlightAware
01:21PM 36.0090 -115.0640 95° East 239 275 8,100 -300 Level FlightAware
01:22PM 36.0080 -115.0430 93° East 232 267 7,900 -720 Descending FlightAware
01:22PM 36.0060 -115.0090 94° East 215 247 7,600 -900 Descending FlightAware
01:22PM 36.0050 -114.9930 94° East 214 246 7,300 -1,380 Descending FlightAware
01:23PM 36.0030 -114.9590 94° East 217 250 6,700 -1,380 Descending FlightAware
01:23PM 36.0140 -114.9270 67° East 208 239 6,000 -1,440 Descending FlightAware
01:23PM 36.0250 -114.9240 12° North 209 241 5,700 -900 Descending FlightAware
01:24PM 36.0400 -114.9270 351° North 209 241 5,600 -720 Descending FlightAware
01:24PM 36.0650 -114.9380 340° North 215 247 5,200 -900 Descending FlightAware
01:24PM 36.0720 -114.9510 304° West 215 247 5,000 -1,200 Descending FlightAware
01:25PM 36.0740 -114.9670 279° West 210 242 4,700 -1,380 Descending FlightAware
01:25PM 36.0740 -115.0020 270° West 191 220 4,000 -1,140 Descending FlightAware
01:26PM 36.0740 -115.0300 270° West 166 191 3,600 -840 Descending FlightAware
01:26PM 36.0740 -115.0520 270° West 159 183 3,300 -780 Descending FlightAware
01:26PM 36.0740 -115.0720 270° West 153 176 3,000 -780 Descending FlightAware
01:27PM 36.0740 -115.0930 270° West 151 174 2,700 -840 Descending FlightAware
01:27PM 36.0740 -115.1190 270° West 153 176 2,300 -840 Descending FlightAware
01:28PM 36.0740 -115.1400 270° West 110 127 -5,160 Descending FlightAware
01:28PM 36.0740 -115.1520 270° West 35 40  Level FlightAware
01:36PM 36.0801 -115.1523 270° West  Level Estimated